createdAt,value
2023-03-22T00:00:43.898Z,0.00
2023-03-22T00:01:43.909Z,0.00
2023-03-22T00:02:43.963Z,0.00
2023-03-22T00:03:43.897Z,0.00
2023-03-22T00:04:43.873Z,0.00
2023-03-22T00:05:43.836Z,0.00
2023-03-22T00:06:43.820Z,0.00
2023-03-22T00:07:43.810Z,0.00
2023-03-22T00:08:43.794Z,0.00
2023-03-22T00:09:43.892Z,0.00
2023-03-22T00:10:43.765Z,0.00
2023-03-22T00:11:43.758Z,0.00
2023-03-22T00:12:43.746Z,0.00
2023-03-22T00:13:43.737Z,0.00
2023-03-22T00:14:43.746Z,0.00
2023-03-22T00:15:43.745Z,0.00
2023-03-22T00:16:43.687Z,0.00
2023-03-22T00:17:43.702Z,0.00
2023-03-22T00:18:43.662Z,0.00
2023-03-22T00:19:43.677Z,0.00
2023-03-22T00:20:43.644Z,0.00
2023-03-22T00:21:43.626Z,0.00
2023-03-22T00:22:43.613Z,0.00
2023-03-22T00:23:43.610Z,0.00
2023-03-22T00:24:43.611Z,0.00
2023-03-22T00:25:43.576Z,0.00
2023-03-22T00:26:43.561Z,0.00
2023-03-22T00:27:43.554Z,0.00
2023-03-22T00:28:43.556Z,0.00
2023-03-22T00:29:43.548Z,0.00
2023-03-22T00:30:43.512Z,0.00
2023-03-22T00:31:43.531Z,0.00
2023-03-22T00:32:43.483Z,0.00
2023-03-22T00:33:43.479Z,0.00
2023-03-22T00:34:43.505Z,0.00
2023-03-22T00:35:43.494Z,0.00
2023-03-22T00:36:43.431Z,0.00
2023-03-22T00:37:43.424Z,0.00
2023-03-22T00:38:44.397Z,0.00
2023-03-22T00:39:43.405Z,0.00
2023-03-22T00:40:43.398Z,0.00
2023-03-22T00:41:43.386Z,0.00
2023-03-22T00:42:43.370Z,0.00
2023-03-22T00:43:43.348Z,0.00
2023-03-22T00:44:43.358Z,0.00
2023-03-22T00:45:43.363Z,0.00
2023-03-22T00:46:43.312Z,0.00
2023-03-22T00:47:43.424Z,0.00
2023-03-22T00:48:43.280Z,0.00
2023-03-22T00:49:43.321Z,0.00
2023-03-22T00:50:43.480Z,0.00
2023-03-22T00:51:43.251Z,0.00
2023-03-22T00:52:43.241Z,0.00
2023-03-22T00:53:43.843Z,0.00
2023-03-22T00:54:43.213Z,0.00
2023-03-22T00:55:43.190Z,0.00
2023-03-22T00:56:43.174Z,0.00
2023-03-22T00:57:43.177Z,0.00
2023-03-22T00:58:43.147Z,0.00
2023-03-22T00:59:43.162Z,0.00
2023-03-22T01:00:43.195Z,0.00
2023-03-22T01:01:43.125Z,0.00
2023-03-22T01:02:43.094Z,0.00
2023-03-22T01:03:43.366Z,0.00
2023-03-22T01:04:43.068Z,0.00
2023-03-22T01:05:43.083Z,0.00
2023-03-22T01:06:43.060Z,0.00
2023-03-22T01:07:43.036Z,0.00
2023-03-22T01:08:43.032Z,0.00
2023-03-22T01:09:43.007Z,0.00
2023-03-22T01:10:42.994Z,0.00
2023-03-22T01:11:43.023Z,0.00
2023-03-22T01:12:42.964Z,0.00
2023-03-22T01:13:42.951Z,0.00
2023-03-22T01:14:42.940Z,0.00
2023-03-22T01:15:42.931Z,0.00
2023-03-22T01:16:43.013Z,0.00
2023-03-22T01:17:42.905Z,0.00
2023-03-22T01:18:42.890Z,0.00
2023-03-22T01:19:42.881Z,0.00
2023-03-22T01:20:42.859Z,0.00
2023-03-22T01:21:42.876Z,0.00
2023-03-22T01:22:42.841Z,0.00
2023-03-22T01:23:42.830Z,0.00
2023-03-22T01:24:42.806Z,0.00
2023-03-22T01:25:42.828Z,0.00
2023-03-22T01:26:42.818Z,0.00
2023-03-22T01:27:42.783Z,0.00
2023-03-22T01:28:42.758Z,0.00
2023-03-22T01:29:42.750Z,0.00
2023-03-22T01:30:43.094Z,0.00
2023-03-22T01:31:42.752Z,0.00
2023-03-22T01:32:42.719Z,0.00
2023-03-22T01:33:42.690Z,0.00
2023-03-22T01:34:42.717Z,0.00
2023-03-22T01:35:42.716Z,0.00
2023-03-22T01:36:42.683Z,0.00
2023-03-22T01:37:42.661Z,0.00
2023-03-22T01:38:42.629Z,0.00
2023-03-22T01:39:42.627Z,0.00
2023-03-22T01:40:42.861Z,0.00
2023-03-22T01:41:42.592Z,0.00
2023-03-22T01:42:42.610Z,0.00
2023-03-22T01:43:42.571Z,0.00
2023-03-22T01:45:36.060Z,0.00
2023-03-22T01:46:37.113Z,0.00
2023-03-22T01:47:37.076Z,0.00
2023-03-22T01:48:37.110Z,0.00
2023-03-22T01:49:37.008Z,0.00
2023-03-22T01:50:37.125Z,0.00
2023-03-22T01:51:37.028Z,0.00
2023-03-22T01:52:36.997Z,0.00
2023-03-22T01:53:36.968Z,0.00
2023-03-22T01:54:36.953Z,0.00
2023-03-22T01:55:36.944Z,0.00
2023-03-22T01:56:36.922Z,0.00
2023-03-22T01:57:36.947Z,0.00
2023-03-22T01:58:36.904Z,0.00
2023-03-22T01:59:36.899Z,0.00
2023-03-22T02:00:37.290Z,0.00
2023-03-22T02:01:36.896Z,0.00
2023-03-22T02:02:36.920Z,0.00
2023-03-22T02:03:36.853Z,0.00
2023-03-22T02:04:36.818Z,0.00
2023-03-22T02:05:36.840Z,0.00
2023-03-22T02:06:36.788Z,0.00
2023-03-22T02:07:36.816Z,0.00
2023-03-22T02:08:36.767Z,0.00
2023-03-22T02:09:36.757Z,0.00
2023-03-22T02:10:36.962Z,0.00
2023-03-22T02:11:36.731Z,0.00
2023-03-22T02:12:36.720Z,0.00
2023-03-22T02:13:36.728Z,0.00
2023-03-22T02:14:36.702Z,0.00
2023-03-22T02:15:36.763Z,0.00
2023-03-22T02:16:36.672Z,0.00
2023-03-22T02:17:36.693Z,0.00
2023-03-22T02:18:36.642Z,0.00
2023-03-22T02:19:36.626Z,0.00
2023-03-22T02:20:36.639Z,0.00
2023-03-22T02:21:36.623Z,0.00
2023-03-22T02:22:36.587Z,0.00
2023-03-22T02:23:36.595Z,0.00
2023-03-22T02:24:36.559Z,0.00
2023-03-22T02:25:36.565Z,0.00
2023-03-22T02:26:36.527Z,0.00
2023-03-22T02:27:36.524Z,0.00
2023-03-22T02:28:36.612Z,0.00
2023-03-22T02:29:36.525Z,0.00
2023-03-22T02:30:36.581Z,0.00
2023-03-22T02:31:36.569Z,0.00
2023-03-22T02:32:36.471Z,0.00
2023-03-22T02:33:36.478Z,0.00
2023-03-22T02:34:36.456Z,0.00
2023-03-22T02:35:36.462Z,0.00
2023-03-22T02:36:36.405Z,0.00
2023-03-22T02:37:36.400Z,0.00
2023-03-22T02:38:36.407Z,0.00
2023-03-22T02:39:36.412Z,0.00
2023-03-22T02:40:36.428Z,0.00
2023-03-22T02:41:36.348Z,0.00
2023-03-22T02:42:36.382Z,0.00
2023-03-22T02:43:36.340Z,0.00
2023-03-22T02:44:36.317Z,0.00
2023-03-22T02:45:36.290Z,0.00
2023-03-22T02:46:36.342Z,0.00
2023-03-22T02:47:36.263Z,0.00
2023-03-22T02:48:36.267Z,0.00
2023-03-22T02:49:36.312Z,0.00
2023-03-22T02:50:36.463Z,0.00
2023-03-22T02:51:36.234Z,0.00
2023-03-22T02:52:36.247Z,0.00
2023-03-22T02:53:36.205Z,0.00
2023-03-22T02:54:36.178Z,0.00
2023-03-22T02:55:36.181Z,0.00
2023-03-22T02:56:36.167Z,0.00
2023-03-22T02:57:36.147Z,0.00
2023-03-22T02:58:36.158Z,0.00
2023-03-22T02:59:36.121Z,0.00
2023-03-22T03:00:36.169Z,0.00
2023-03-22T03:01:36.180Z,0.00
2023-03-22T03:02:36.066Z,0.00
2023-03-22T03:03:36.105Z,0.00
2023-03-22T03:04:36.050Z,0.00
2023-03-22T03:05:36.037Z,0.00
2023-03-22T03:06:36.025Z,0.00
2023-03-22T03:07:36.009Z,0.00
2023-03-22T03:08:36.036Z,0.00
2023-03-22T03:09:36.034Z,0.00
2023-03-22T03:10:35.967Z,0.00
2023-03-22T03:11:35.982Z,0.00
2023-03-22T03:12:35.957Z,0.00
2023-03-22T03:13:35.928Z,0.00
2023-03-22T03:14:35.936Z,0.00
2023-03-22T03:15:35.903Z,0.00
2023-03-22T03:16:35.930Z,0.00
2023-03-22T03:17:35.892Z,0.00
2023-03-22T03:18:35.862Z,0.00
2023-03-22T03:19:35.889Z,0.00
2023-03-22T03:20:35.837Z,0.00
2023-03-22T03:21:35.848Z,0.00
2023-03-22T03:22:35.806Z,0.00
2023-03-22T03:23:35.865Z,0.00
2023-03-22T03:24:35.805Z,0.00
2023-03-22T03:25:35.783Z,0.00
2023-03-22T03:26:35.799Z,0.00
2023-03-22T03:27:35.773Z,0.00
2023-03-22T03:28:35.736Z,0.00
2023-03-22T03:29:35.742Z,0.00
2023-03-22T03:30:35.720Z,0.00
2023-03-22T03:31:35.766Z,0.00
2023-03-22T03:32:35.706Z,0.00
2023-03-22T03:33:35.687Z,0.00
2023-03-22T03:34:35.664Z,0.00
2023-03-22T03:35:35.784Z,0.00
2023-03-22T03:36:35.629Z,0.00
2023-03-22T03:37:35.651Z,0.00
2023-03-22T03:38:35.610Z,0.00
2023-03-22T03:39:35.616Z,0.00
2023-03-22T03:40:35.576Z,0.00
2023-03-22T03:41:35.575Z,0.00
2023-03-22T03:42:35.570Z,0.00
2023-03-22T03:43:35.556Z,0.00
2023-03-22T03:44:35.532Z,0.00
2023-03-22T03:45:35.578Z,0.00
2023-03-22T03:46:35.504Z,0.00
2023-03-22T03:47:35.518Z,0.00
2023-03-22T03:48:35.505Z,0.00
2023-03-22T03:49:35.497Z,0.00
2023-03-22T03:50:35.462Z,0.00
2023-03-22T03:51:35.441Z,0.00
2023-03-22T03:52:35.452Z,0.00
2023-03-22T03:53:35.445Z,0.00
2023-03-22T03:54:35.434Z,0.00
2023-03-22T03:55:35.388Z,0.00
2023-03-22T03:56:35.461Z,0.00
2023-03-22T03:57:35.365Z,0.00
2023-03-22T03:58:35.356Z,0.00
2023-03-22T03:59:35.350Z,0.00
2023-03-22T04:00:35.332Z,0.00
2023-03-22T04:01:35.311Z,0.00
2023-03-22T04:02:35.336Z,0.00
2023-03-22T04:03:35.305Z,0.00
2023-03-22T04:04:35.340Z,0.00
2023-03-22T04:05:35.268Z,0.00
2023-03-22T04:06:35.265Z,0.00
2023-03-22T04:07:35.243Z,0.00
2023-03-22T04:08:35.260Z,0.00
2023-03-22T04:09:35.368Z,0.00
2023-03-22T04:10:35.248Z,0.00
2023-03-22T04:11:35.198Z,0.00
2023-03-22T04:12:35.199Z,0.00
2023-03-22T04:13:35.174Z,0.00
2023-03-22T04:14:35.161Z,0.00
2023-03-22T04:15:35.138Z,0.00
2023-03-22T04:16:35.217Z,0.00
2023-03-22T04:17:35.133Z,0.00
2023-03-22T04:18:35.136Z,0.00
2023-03-22T04:19:35.086Z,0.00
2023-03-22T04:20:35.091Z,0.00
2023-03-22T04:21:35.124Z,0.00
2023-03-22T04:22:35.066Z,0.00
2023-03-22T04:23:35.029Z,0.00
2023-03-22T04:24:35.064Z,0.00
2023-03-22T04:25:35.009Z,0.00
2023-03-22T04:26:35.001Z,0.00
2023-03-22T04:27:35.028Z,0.00
2023-03-22T04:28:34.980Z,0.00
2023-03-22T04:29:34.950Z,0.00
2023-03-22T04:30:35.028Z,0.00
2023-03-22T04:31:34.959Z,0.00
2023-03-22T04:32:34.930Z,0.00
2023-03-22T04:33:34.899Z,0.00
2023-03-22T04:34:34.895Z,0.00
2023-03-22T04:35:34.941Z,0.00
2023-03-22T04:36:34.891Z,0.00
2023-03-22T04:37:34.840Z,0.00
2023-03-22T04:38:34.878Z,0.00
2023-03-22T04:39:34.827Z,0.00
2023-03-22T04:40:34.845Z,0.00
2023-03-22T04:41:34.851Z,0.00
2023-03-22T04:42:34.819Z,0.00
2023-03-22T04:43:34.786Z,0.00
2023-03-22T04:44:34.779Z,0.00
2023-03-22T04:45:34.757Z,0.00
2023-03-22T04:46:34.872Z,0.00
2023-03-22T04:47:34.735Z,0.00
2023-03-22T04:48:34.814Z,0.00
2023-03-22T04:49:34.723Z,0.00
2023-03-22T04:50:34.690Z,0.00
2023-03-22T04:51:34.674Z,0.00
2023-03-22T04:52:34.724Z,0.00
2023-03-22T04:53:34.645Z,0.00
2023-03-22T04:54:34.638Z,0.00
2023-03-22T04:55:34.648Z,0.00
2023-03-22T04:56:34.605Z,0.00
2023-03-22T04:57:34.615Z,0.00
2023-03-22T04:58:34.579Z,0.00
2023-03-22T04:59:34.573Z,0.00
2023-03-22T05:00:34.558Z,0.00
2023-03-22T05:01:34.573Z,0.00
2023-03-22T05:02:34.658Z,0.00
2023-03-22T05:03:34.514Z,0.00
2023-03-22T05:04:34.472Z,0.00
2023-03-22T05:05:34.437Z,0.00
2023-03-22T05:06:34.433Z,0.00
2023-03-22T05:07:34.434Z,0.00
2023-03-22T05:08:34.484Z,0.00
2023-03-22T05:09:34.384Z,0.00
2023-03-22T05:10:34.399Z,0.00
2023-03-22T05:11:34.398Z,0.00
2023-03-22T05:12:34.375Z,0.00
2023-03-22T05:13:34.334Z,0.00
2023-03-22T05:14:34.413Z,0.00
2023-03-22T05:15:34.315Z,0.00
2023-03-22T05:16:34.836Z,0.00
2023-03-22T05:17:34.313Z,0.00
2023-03-22T05:18:34.299Z,0.00
2023-03-22T05:19:34.255Z,0.00
2023-03-22T05:20:34.258Z,0.00
2023-03-22T05:21:34.230Z,0.00
2023-03-22T05:22:34.243Z,0.00
2023-03-22T05:23:34.209Z,0.00
2023-03-22T05:24:34.195Z,0.00
2023-03-22T05:25:34.200Z,0.00
2023-03-22T05:26:34.181Z,0.00
2023-03-22T05:27:34.145Z,0.00
2023-03-22T05:28:34.149Z,0.00
2023-03-22T05:29:34.172Z,0.00
2023-03-22T05:30:34.145Z,0.00
2023-03-22T05:31:34.111Z,0.01
2023-03-22T05:32:34.104Z,0.01
2023-03-22T05:33:34.106Z,0.01
2023-03-22T05:34:34.065Z,0.01
2023-03-22T05:35:34.132Z,0.01
2023-03-22T05:36:34.046Z,0.01
2023-03-22T05:37:34.073Z,0.01
2023-03-22T05:38:34.047Z,0.03
2023-03-22T05:39:33.997Z,0.03
2023-03-22T05:40:34.070Z,0.03
2023-03-22T05:41:36.343Z,0.03
2023-03-22T05:42:33.969Z,0.03
2023-03-22T05:43:33.960Z,0.03
2023-03-22T05:44:33.966Z,0.03
2023-03-22T05:45:33.941Z,0.03
2023-03-22T05:46:33.974Z,0.04
2023-03-22T05:47:33.916Z,0.04
2023-03-22T05:48:33.888Z,0.04
2023-03-22T05:49:33.868Z,0.04
2023-03-22T05:50:33.887Z,0.04
2023-03-22T05:51:33.856Z,0.04
2023-03-22T05:52:33.829Z,0.04
2023-03-22T05:53:33.947Z,0.05
2023-03-22T05:54:33.812Z,0.05
2023-03-22T05:55:33.792Z,0.05
2023-03-22T05:56:33.796Z,0.05
2023-03-22T05:57:33.799Z,0.05
2023-03-22T05:58:33.801Z,0.05
2023-03-22T05:59:33.736Z,0.05
2023-03-22T06:00:33.736Z,0.06
2023-03-22T06:01:33.788Z,0.06
2023-03-22T06:02:33.706Z,0.06
2023-03-22T06:03:33.800Z,0.06
2023-03-22T06:04:33.686Z,0.08
2023-03-22T06:05:33.729Z,0.09
2023-03-22T06:06:33.660Z,0.09
2023-03-22T06:07:33.638Z,0.09
2023-03-22T06:08:33.701Z,0.10
2023-03-22T06:09:33.604Z,0.10
2023-03-22T06:10:33.648Z,0.10
2023-03-22T06:11:33.601Z,0.10
2023-03-22T06:12:33.571Z,0.11
2023-03-22T06:13:33.575Z,0.13
2023-03-22T06:14:33.555Z,0.13
2023-03-22T06:15:33.549Z,0.13
2023-03-22T06:16:33.541Z,0.14
2023-03-22T06:17:33.505Z,0.15
2023-03-22T06:18:33.529Z,0.16
2023-03-22T06:19:33.482Z,0.15
2023-03-22T06:20:33.487Z,0.16
2023-03-22T06:21:33.504Z,0.18
2023-03-22T06:22:33.455Z,0.16
2023-03-22T06:23:33.450Z,0.16
2023-03-22T06:24:33.422Z,0.16
2023-03-22T06:25:33.400Z,0.18
2023-03-22T06:26:33.434Z,0.18
2023-03-22T06:27:33.388Z,0.18
2023-03-22T06:28:33.410Z,0.18
2023-03-22T06:29:33.359Z,0.18
2023-03-22T06:30:33.345Z,0.19
2023-03-22T06:31:33.343Z,0.19
2023-03-22T06:32:33.351Z,0.19
2023-03-22T06:33:33.303Z,0.18
2023-03-22T06:34:33.282Z,0.18
2023-03-22T06:35:33.307Z,0.19
2023-03-22T06:36:33.291Z,0.22
2023-03-22T06:37:33.281Z,0.23
2023-03-22T06:38:33.227Z,0.24
2023-03-22T06:39:33.226Z,0.23
2023-03-22T06:40:33.199Z,0.24
2023-03-22T06:41:33.204Z,0.24
2023-03-22T06:42:33.188Z,0.25
2023-03-22T06:43:33.215Z,0.29
2023-03-22T06:44:33.160Z,0.29
2023-03-22T06:45:33.125Z,0.28
2023-03-22T06:46:33.172Z,0.27
2023-03-22T06:47:33.098Z,0.28
2023-03-22T06:48:33.121Z,0.32
2023-03-22T06:49:33.123Z,0.33
2023-03-22T06:50:33.075Z,0.33
2023-03-22T06:51:33.080Z,0.33
2023-03-22T06:52:33.050Z,0.34
2023-03-22T06:53:33.061Z,0.37
2023-03-22T06:54:33.012Z,0.37
2023-03-22T06:55:33.008Z,0.37
2023-03-22T06:56:33.008Z,0.41
2023-03-22T06:57:32.972Z,0.43
2023-03-22T06:58:32.973Z,0.43
2023-03-22T06:59:32.961Z,0.43
2023-03-22T07:00:32.945Z,0.46
2023-03-22T07:01:32.974Z,0.51
2023-03-22T07:02:32.909Z,0.54
2023-03-22T07:03:32.951Z,0.58
2023-03-22T07:04:32.955Z,0.58
2023-03-22T07:05:32.889Z,0.58
2023-03-22T07:06:32.877Z,0.59
2023-03-22T07:07:32.844Z,0.59
2023-03-22T07:08:32.865Z,0.61
2023-03-22T07:09:32.863Z,0.57
2023-03-22T07:10:32.834Z,0.56
2023-03-22T07:11:32.809Z,0.59
2023-03-22T07:12:32.812Z,0.61
2023-03-22T07:13:32.774Z,0.61
2023-03-22T07:14:32.753Z,0.63
2023-03-22T07:15:32.833Z,0.65
2023-03-22T07:16:32.833Z,0.67
2023-03-22T07:17:32.738Z,0.70
2023-03-22T07:18:32.711Z,0.71
2023-03-22T07:19:32.693Z,0.73
2023-03-22T07:20:32.695Z,0.72
2023-03-22T07:21:32.692Z,0.76
2023-03-22T07:22:32.658Z,0.78
2023-03-22T07:23:32.643Z,0.72
2023-03-22T07:24:32.642Z,0.68
2023-03-22T07:25:32.617Z,0.65
2023-03-22T07:26:32.647Z,0.59
2023-03-22T07:27:32.584Z,0.53
2023-03-22T07:28:32.582Z,0.49
2023-03-22T07:29:32.569Z,0.48
2023-03-22T07:30:32.571Z,0.51
2023-03-22T07:31:32.550Z,0.53
2023-03-22T07:32:32.591Z,0.54
2023-03-22T07:33:32.521Z,0.56
2023-03-22T07:34:32.496Z,0.59
2023-03-22T07:35:32.497Z,0.63
2023-03-22T07:36:32.817Z,0.67
2023-03-22T07:37:32.497Z,0.72
2023-03-22T07:38:32.446Z,0.75
2023-03-22T07:39:32.442Z,0.78
2023-03-22T07:40:32.419Z,0.81
2023-03-22T07:41:32.424Z,0.82
2023-03-22T07:42:32.393Z,0.81
2023-03-22T07:43:35.435Z,0.84
2023-03-22T07:44:32.375Z,0.82
2023-03-22T07:45:32.488Z,0.78
2023-03-22T07:46:32.412Z,0.77
2023-03-22T07:47:40.871Z,0.73
2023-03-22T07:48:32.341Z,0.72
2023-03-22T07:49:32.316Z,0.71
2023-03-22T07:50:32.292Z,0.72
2023-03-22T07:51:32.287Z,0.73
2023-03-22T07:52:32.280Z,0.75
2023-03-22T07:53:32.240Z,0.76
2023-03-22T07:54:34.239Z,0.70
2023-03-22T07:55:32.236Z,0.65
2023-03-22T07:56:32.237Z,0.66
2023-03-22T07:57:32.197Z,0.65
2023-03-22T07:58:32.187Z,0.61
2023-03-22T07:59:32.198Z,0.62
2023-03-22T08:00:32.182Z,0.65
2023-03-22T08:01:32.182Z,0.62
2023-03-22T08:02:32.133Z,0.58
2023-03-22T08:03:32.166Z,0.65
2023-03-22T08:04:32.107Z,0.66
2023-03-22T08:05:32.133Z,0.62
2023-03-22T08:06:32.116Z,0.53
2023-03-22T08:07:32.086Z,0.51
2023-03-22T08:08:32.069Z,0.57
2023-03-22T08:09:32.047Z,0.66
2023-03-22T08:10:32.058Z,0.63
2023-03-22T08:11:32.045Z,0.48
2023-03-22T08:12:32.012Z,0.37
2023-03-22T08:13:31.994Z,0.34
2023-03-22T08:14:36.618Z,0.29
2023-03-22T08:15:31.981Z,0.27
2023-03-22T08:16:31.983Z,0.24
2023-03-22T08:17:32.027Z,0.29
2023-03-22T08:18:31.936Z,0.44
2023-03-22T08:19:31.911Z,0.53
2023-03-22T08:20:31.898Z,0.56
2023-03-22T08:21:31.913Z,0.73
2023-03-22T08:22:31.864Z,0.85
2023-03-22T08:23:41.574Z,0.87
2023-03-22T08:24:31.853Z,0.87
2023-03-22T08:25:31.869Z,0.84
2023-03-22T08:26:31.842Z,0.84
2023-03-22T08:27:31.828Z,0.81
2023-03-22T08:28:31.789Z,0.77
2023-03-22T08:29:31.780Z,0.76
2023-03-22T08:30:31.777Z,0.77
2023-03-22T08:31:31.884Z,0.77
2023-03-22T08:32:31.742Z,0.80
2023-03-22T08:33:31.741Z,0.87
2023-03-22T08:34:31.716Z,0.90
2023-03-22T08:35:31.756Z,0.86
2023-03-22T08:36:31.685Z,0.84
2023-03-22T08:37:31.700Z,0.86
2023-03-22T08:38:31.666Z,0.91
2023-03-22T08:39:31.641Z,0.91
2023-03-22T08:40:31.713Z,0.95
2023-03-22T08:41:31.632Z,0.96
2023-03-22T08:42:31.620Z,0.97
2023-03-22T08:43:31.613Z,0.96
2023-03-22T08:44:31.587Z,0.99
2023-03-22T08:45:31.595Z,0.99
2023-03-22T08:46:31.583Z,0.99
2023-03-22T08:47:31.543Z,0.97
2023-03-22T08:48:31.558Z,0.96
2023-03-22T08:49:31.551Z,1.01
2023-03-22T08:50:31.519Z,1.03
2023-03-22T08:51:31.500Z,1.05
2023-03-22T08:52:31.484Z,1.03
2023-03-22T08:53:31.475Z,1.04
2023-03-22T08:54:31.476Z,0.97
2023-03-22T08:55:31.464Z,0.96
2023-03-22T08:56:31.432Z,0.92
2023-03-22T08:57:31.423Z,0.95
2023-03-22T08:58:31.409Z,1.00
2023-03-22T08:59:31.388Z,0.90
2023-03-22T09:00:42.468Z,0.80
2023-03-22T09:01:31.508Z,0.78
2023-03-22T09:02:31.393Z,0.85
2023-03-22T09:03:31.355Z,0.82
2023-03-22T09:04:31.366Z,0.84
2023-03-22T09:05:31.309Z,0.89
2023-03-22T09:06:31.295Z,0.89
2023-03-22T09:07:31.308Z,0.87
2023-03-22T09:08:31.287Z,0.85
2023-03-22T09:09:31.267Z,0.80
2023-03-22T09:10:31.286Z,0.87
2023-03-22T09:11:31.237Z,0.90
2023-03-22T09:12:31.225Z,0.91
2023-03-22T09:13:31.209Z,0.94
2023-03-22T09:14:31.178Z,0.90
2023-03-22T09:15:31.183Z,0.96
2023-03-22T09:16:31.251Z,0.96
2023-03-22T09:17:31.192Z,0.96
2023-03-22T09:18:31.246Z,0.90
2023-03-22T09:19:31.120Z,0.92
2023-03-22T09:20:31.129Z,0.87
2023-03-22T09:21:31.126Z,0.90
2023-03-22T09:22:31.095Z,0.85
2023-03-22T09:23:31.116Z,0.81
2023-03-22T09:24:31.077Z,0.77
2023-03-22T09:25:31.043Z,0.82
2023-03-22T09:26:31.047Z,0.84
2023-03-22T09:27:31.024Z,0.77
2023-03-22T09:28:31.061Z,0.87
2023-03-22T09:29:31.013Z,0.82
2023-03-22T09:30:30.978Z,0.91
2023-03-22T09:31:31.063Z,0.94
2023-03-22T09:32:30.975Z,0.95
2023-03-22T09:33:30.947Z,0.99
2023-03-22T09:34:30.933Z,1.01
2023-03-22T09:35:30.958Z,1.05
2023-03-22T09:36:30.905Z,0.97
2023-03-22T09:37:30.932Z,0.99
2023-03-22T09:38:30.874Z,0.96
2023-03-22T09:39:30.885Z,0.94
2023-03-22T09:40:30.865Z,0.96
2023-03-22T09:41:30.844Z,1.13
2023-03-22T09:42:30.838Z,0.97
2023-03-22T09:43:33.078Z,1.13
2023-03-22T09:44:30.786Z,1.28
2023-03-22T09:45:30.806Z,1.14
2023-03-22T09:46:30.833Z,1.13
2023-03-22T09:47:42.283Z,1.20
2023-03-22T09:48:30.795Z,1.08
2023-03-22T09:49:32.143Z,1.11
2023-03-22T09:50:30.709Z,1.16
2023-03-22T09:51:30.758Z,1.11
2023-03-22T09:52:30.769Z,1.08
2023-03-22T09:53:30.687Z,1.00
2023-03-22T09:54:30.695Z,1.00
2023-03-22T09:55:30.644Z,1.04
2023-03-22T09:56:30.651Z,1.10
2023-03-22T09:57:30.661Z,1.15
2023-03-22T09:58:30.663Z,1.23
2023-03-22T09:59:30.598Z,1.27
2023-03-22T10:00:30.854Z,1.29
2023-03-22T10:01:30.714Z,1.37
2023-03-22T10:02:30.709Z,1.30
2023-03-22T10:03:30.549Z,1.22
2023-03-22T10:04:30.650Z,1.15
2023-03-22T10:05:30.544Z,0.90
2023-03-22T10:06:30.535Z,0.89
2023-03-22T10:07:30.502Z,1.01
2023-03-22T10:08:30.500Z,1.06
2023-03-22T10:09:30.467Z,1.14
2023-03-22T10:10:30.466Z,1.08
2023-03-22T10:11:30.501Z,1.11
2023-03-22T10:12:30.457Z,1.13
2023-03-22T10:13:30.426Z,1.13
2023-03-22T10:14:30.419Z,1.11
2023-03-22T10:15:30.440Z,1.08
2023-03-22T10:16:30.407Z,1.01
2023-03-22T10:17:30.390Z,1.00
2023-03-22T10:18:30.351Z,1.01
2023-03-22T10:19:30.330Z,1.04
2023-03-22T10:20:30.315Z,1.09
2023-03-22T10:21:30.334Z,1.06
2023-03-22T10:22:30.304Z,1.05
2023-03-22T10:23:30.309Z,1.03
2023-03-22T10:24:30.266Z,1.11
2023-03-22T10:25:30.257Z,1.14
2023-03-22T10:26:30.264Z,1.04
2023-03-22T10:27:30.239Z,1.04
2023-03-22T10:28:30.214Z,1.18
2023-03-22T10:29:30.225Z,1.15
2023-03-22T10:30:30.192Z,1.15
2023-03-22T10:31:30.199Z,1.18
2023-03-22T10:32:30.185Z,1.14
2023-03-22T10:33:30.156Z,1.14
2023-03-22T10:34:30.202Z,1.19
2023-03-22T10:35:30.189Z,1.42
2023-03-22T10:36:30.117Z,1.44
2023-03-22T10:37:30.133Z,1.47
2023-03-22T10:38:30.099Z,1.43
2023-03-22T10:39:30.117Z,1.47
2023-03-22T10:40:30.049Z,1.27
2023-03-22T10:41:30.053Z,1.40
2023-03-22T10:42:30.052Z,1.52
2023-03-22T10:43:30.036Z,1.34
2023-03-22T10:44:30.004Z,1.34
2023-03-22T10:45:30.011Z,1.49
2023-03-22T10:46:30.003Z,1.33
2023-03-22T10:47:29.986Z,1.32
2023-03-22T10:49:27.918Z,1.28
2023-03-22T10:50:28.894Z,1.27
2023-03-22T10:51:28.881Z,1.27
2023-03-22T10:52:28.893Z,1.32
2023-03-22T10:53:28.854Z,1.28
2023-03-22T10:54:28.844Z,1.28
2023-03-22T10:55:28.832Z,1.28
2023-03-22T10:56:28.807Z,1.25
2023-03-22T10:57:28.827Z,1.24
2023-03-22T10:58:28.789Z,1.23
2023-03-22T10:59:28.786Z,1.23
2023-03-22T11:00:28.880Z,1.22
2023-03-22T11:01:28.858Z,1.16
2023-03-22T11:02:28.947Z,1.16
2023-03-22T11:03:28.738Z,1.15
2023-03-22T11:04:28.731Z,1.14
2023-03-22T11:05:28.710Z,1.16
2023-03-22T11:06:28.685Z,1.20
2023-03-22T11:07:28.696Z,1.25
2023-03-22T11:08:28.674Z,1.11
2023-03-22T11:09:28.687Z,1.06
2023-03-22T11:10:28.670Z,1.03
2023-03-22T11:11:28.624Z,1.01
2023-03-22T11:12:28.609Z,1.03
2023-03-22T11:13:28.605Z,1.04
2023-03-22T11:14:28.608Z,1.03
2023-03-22T11:15:28.590Z,1.03
2023-03-22T11:16:28.584Z,1.05
2023-03-22T11:17:28.570Z,1.06
2023-03-22T11:18:28.662Z,1.03
2023-03-22T11:19:28.521Z,1.01
2023-03-22T11:20:29.940Z,0.99
2023-03-22T11:21:28.497Z,0.96
2023-03-22T11:22:28.487Z,0.95
2023-03-22T11:23:28.560Z,0.96
2023-03-22T11:24:28.460Z,0.99
2023-03-22T11:25:28.442Z,1.08
2023-03-22T11:26:28.451Z,1.18
2023-03-22T11:27:28.674Z,1.25
2023-03-22T11:28:28.394Z,1.32
2023-03-22T11:29:28.385Z,1.28
2023-03-22T11:30:28.370Z,1.23
2023-03-22T11:31:28.434Z,1.38
2023-03-22T11:32:28.486Z,1.43
2023-03-22T11:33:28.331Z,1.44
2023-03-22T11:34:28.352Z,1.46
2023-03-22T11:35:28.363Z,1.49
2023-03-22T11:36:28.299Z,1.43
2023-03-22T11:37:28.302Z,1.57
2023-03-22T11:38:28.260Z,1.58
2023-03-22T11:39:28.412Z,1.66
2023-03-22T11:40:28.259Z,1.57
2023-03-22T11:41:28.245Z,1.62
2023-03-22T11:42:28.220Z,1.65
2023-03-22T11:43:28.204Z,1.53
2023-03-22T11:44:28.217Z,1.66
2023-03-22T11:45:28.179Z,1.39
2023-03-22T11:46:28.218Z,1.38
2023-03-22T11:47:28.176Z,1.54
2023-03-22T11:48:28.187Z,1.51
2023-03-22T11:49:28.156Z,1.52
2023-03-22T11:50:28.140Z,1.51
2023-03-22T11:51:28.100Z,1.48
2023-03-22T11:52:28.112Z,1.33
2023-03-22T11:53:28.082Z,1.37
2023-03-22T11:54:28.052Z,1.29
2023-03-22T11:55:28.071Z,1.22
2023-03-22T11:56:28.028Z,1.18
2023-03-22T11:57:28.032Z,1.20
2023-03-22T11:58:28.272Z,1.27
2023-03-22T11:59:27.996Z,1.33
2023-03-22T12:00:27.977Z,1.34
2023-03-22T12:01:27.969Z,1.37
2023-03-22T12:02:28.192Z,1.37
2023-03-22T12:03:28.097Z,1.38
2023-03-22T12:04:27.976Z,1.39
2023-03-22T12:05:27.918Z,1.44
2023-03-22T12:06:28.001Z,1.40
2023-03-22T12:07:27.881Z,1.44
2023-03-22T12:08:27.903Z,1.42
2023-03-22T12:09:27.858Z,1.57
2023-03-22T12:10:27.844Z,1.37
2023-03-22T12:11:27.844Z,1.35
2023-03-22T12:12:27.823Z,1.33
2023-03-22T12:13:27.854Z,1.54
2023-03-22T12:14:27.799Z,1.54
2023-03-22T12:15:27.786Z,1.38
2023-03-22T12:16:27.885Z,1.42
2023-03-22T12:17:27.817Z,1.46
2023-03-22T12:18:27.762Z,1.30
2023-03-22T12:19:27.736Z,1.34
2023-03-22T12:20:27.736Z,1.44
2023-03-22T12:21:27.707Z,1.47
2023-03-22T12:22:27.689Z,1.47
2023-03-22T12:23:27.756Z,1.52
2023-03-22T12:24:27.648Z,1.48
2023-03-22T12:25:27.683Z,1.43
2023-03-22T12:26:27.641Z,1.40
2023-03-22T12:27:27.627Z,1.33
2023-03-22T12:28:27.613Z,1.32
2023-03-22T12:29:27.596Z,1.37
2023-03-22T12:30:27.600Z,1.42
2023-03-22T12:31:27.859Z,1.34
2023-03-22T12:32:27.617Z,1.39
2023-03-22T12:33:27.804Z,1.40
2023-03-22T12:34:27.527Z,1.43
2023-03-22T12:35:27.546Z,1.44
2023-03-22T12:36:27.568Z,1.47
2023-03-22T12:37:27.511Z,1.49
2023-03-22T12:38:27.498Z,1.37
2023-03-22T12:39:27.477Z,1.44
2023-03-22T12:40:27.460Z,1.44
2023-03-22T12:41:27.442Z,1.51
2023-03-22T12:42:28.155Z,1.47
2023-03-22T12:43:27.445Z,1.46
2023-03-22T12:44:27.407Z,1.43
2023-03-22T12:45:27.423Z,1.38
2023-03-22T12:46:27.393Z,1.37
2023-03-22T12:47:27.392Z,1.37
2023-03-22T12:48:27.452Z,1.37
2023-03-22T12:49:27.346Z,1.38
2023-03-22T12:50:27.346Z,1.34
2023-03-22T12:51:27.328Z,1.34
2023-03-22T12:52:32.060Z,1.35
2023-03-22T12:53:27.325Z,1.32
2023-03-22T12:54:27.279Z,1.28
2023-03-22T12:55:27.283Z,1.28
2023-03-22T12:56:27.242Z,1.29
2023-03-22T12:57:27.241Z,1.32
2023-03-22T12:58:27.241Z,1.32
2023-03-22T12:59:27.231Z,1.30
2023-03-22T13:00:27.196Z,1.30
2023-03-22T13:01:27.240Z,1.32
2023-03-22T13:02:27.240Z,1.33
2023-03-22T13:03:27.395Z,1.33
2023-03-22T13:04:27.150Z,1.37
2023-03-22T13:05:27.141Z,1.29
2023-03-22T13:06:27.119Z,1.23
2023-03-22T13:07:27.117Z,1.22
2023-03-22T13:08:27.120Z,1.19
2023-03-22T13:09:27.080Z,1.18
2023-03-22T13:10:27.072Z,1.19
2023-03-22T13:11:27.080Z,1.13
2023-03-22T13:12:27.046Z,1.14
2023-03-22T13:13:27.079Z,1.18
2023-03-22T13:14:27.047Z,1.27
2023-03-22T13:15:34.798Z,1.27
2023-03-22T13:16:27.075Z,1.25
2023-03-22T13:17:27.013Z,1.27
2023-03-22T13:18:26.958Z,1.29
2023-03-22T13:19:26.970Z,1.29
2023-03-22T13:20:26.946Z,1.32